Time;durP1;ratioP1;P1;durP2;ratioP2;P2;SDS_P1;SDS_P2;PMS_P1;PMS_P2;Temp;Humidity;BMP_temperature;BMP_pressure;BME280_temperature;BME280_humidity;BME280_pressure;Samples;Min_cycle;Max_cycle;Signal;HPM_P1;HPM_P2
2024/01/19 00:01:05;;;;;;;7.50;6.20;;;-0.20;93.10;;;;;;5059384;28;20184;-84
2024/01/19 00:03:30;;;;;;;6.00;5.50;;;-0.10;93.40;;;;;;5060550;28;20206;-84
2024/01/19 00:05:56;;;;;;;7.17;5.80;;;-0.10;93.60;;;;;;5062943;28;20595;-84
2024/01/19 00:08:21;;;;;;;8.40;5.77;;;0.00;93.80;;;;;;5062999;28;20593;-84
2024/01/19 00:10:47;;;;;;;6.23;5.73;;;0.10;93.80;;;;;;5062831;28;20201;-84
2024/01/19 00:13:12;;;;;;;8.20;5.90;;;0.10;93.70;;;;;;5062712;28;20266;-84
2024/01/19 00:15:38;;;;;;;25.57;6.27;;;0.00;93.50;;;;;;5061804;28;20655;-85
2024/01/19 00:18:04;;;;;;;6.90;6.20;;;0.00;93.50;;;;;;5060492;28;20227;-84
2024/01/19 00:20:29;;;;;;;6.83;6.23;;;0.00;93.50;;;;;;5062121;28;20226;-84
2024/01/19 00:22:55;;;;;;;13.47;6.77;;;0.00;93.40;;;;;;5062847;28;20537;-84
2024/01/19 00:25:20;;;;;;;10.77;6.90;;;-0.10;93.40;;;;;;5061713;28;20194;-84
2024/01/19 00:27:46;;;;;;;7.83;6.33;;;-0.10;93.30;;;;;;5061106;28;20207;-84
2024/01/19 00:30:12;;;;;;;11.20;6.87;;;-0.20;93.30;;;;;;5061140;28;20515;-84
2024/01/19 00:32:37;;;;;;;7.27;6.37;;;-0.30;93.30;;;;;;5061244;28;20180;-84
2024/01/19 00:35:03;;;;;;;6.90;6.40;;;-0.20;93.30;;;;;;5057122;28;20186;-84
2024/01/19 00:37:28;;;;;;;6.20;5.80;;;-0.20;93.30;;;;;;5054355;28;20252;-83
2024/01/19 00:39:54;;;;;;;7.00;6.37;;;-0.30;93.20;;;;;;5056534;28;20175;-83
2024/01/19 00:42:19;;;;;;;6.77;6.20;;;-0.40;93.20;;;;;;5055586;28;20208;-84
2024/01/19 00:44:45;;;;;;;8.43;7.27;;;-0.40;93.10;;;;;;5054448;28;20189;-83
2024/01/19 00:47:10;;;;;;;7.67;7.07;;;-0.40;93.20;;;;;;5055840;28;20208;-83
2024/01/19 00:49:36;;;;;;;5.03;4.83;;;-0.30;93.00;;;;;;5056235;28;20589;-84
2024/01/19 00:52:01;;;;;;;6.77;6.27;;;-0.20;92.90;;;;;;5055814;28;20179;-83
2024/01/19 00:54:28;;;;;;;6.93;6.30;;;-0.10;92.40;;;;;;5055925;28;20178;-83
2024/01/19 00:56:53;;;;;;;6.80;6.40;;;0.00;91.90;;;;;;5055876;28;20190;-83
2024/01/19 00:59:19;;;;;;;6.43;6.03;;;0.00;91.50;;;;;;5055009;28;20185;-84
2024/01/19 01:01:45;;;;;;;19.97;18.70;;;0.00;91.70;;;;;;5055967;28;20262;-83
2024/01/19 01:04:10;;;;;;;20.57;19.27;;;0.00;92.00;;;;;;5056123;28;20171;-84
2024/01/19 01:06:36;;;;;;;19.07;17.97;;;0.00;92.20;;;;;;5054496;28;20556;-83
2024/01/19 01:09:02;;;;;;;18.43;17.13;;;0.00;92.60;;;;;;5055815;28;20657;-83
2024/01/19 01:11:28;;;;;;;18.10;17.10;;;-0.20;93.90;;;;;;5055519;28;20161;-84
2024/01/19 01:13:54;;;;;;;17.87;16.87;;;-0.30;94.40;;;;;;5055278;28;20671;-83
2024/01/19 01:16:19;;;;;;;8.20;7.60;;;-0.40;94.60;;;;;;5055279;28;20219;-83
2024/01/19 01:18:45;;;;;;;7.10;6.60;;;-0.40;94.70;;;;;;5053428;28;20658;-84
2024/01/19 01:21:11;;;;;;;7.60;7.10;;;-0.40;94.70;;;;;;5054168;28;20194;-84
2024/01/19 01:23:36;;;;;;;18.73;17.40;;;-0.20;94.60;;;;;;5054019;28;20712;-85
2024/01/19 01:26:02;;;;;;;14.03;8.83;;;-0.10;94.40;;;;;;5054186;28;20637;-84
2024/01/19 01:28:28;;;;;;;14.60;13.60;;;-0.10;94.40;;;;;;5054108;28;20563;-85
2024/01/19 01:30:53;;;;;;;15.13;13.73;;;-0.10;94.20;;;;;;5052280;28;20209;-85
2024/01/19 01:33:20;;;;;;;16.77;15.27;;;-0.10;94.10;;;;;;5051564;28;20183;-84
2024/01/19 01:35:46;;;;;;;16.13;14.90;;;-0.20;93.90;;;;;;5052253;28;20193;-85
2024/01/19 01:38:11;;;;;;;20.47;18.90;;;-0.20;93.70;;;;;;5052394;28;20203;-84
2024/01/19 01:40:37;;;;;;;20.23;18.70;;;-0.20;93.40;;;;;;5052351;28;20200;-84
2024/01/19 01:43:04;;;;;;;21.80;20.40;;;-0.20;93.20;;;;;;5053988;28;20574;-84
2024/01/19 01:45:30;;;;;;;23.87;22.37;;;-0.30;92.90;;;;;;5053380;28;20163;-84
2024/01/19 01:47:56;;;;;;;25.00;23.27;;;-0.30;93.00;;;;;;5053985;28;20566;-84
2024/01/19 01:50:22;;;;;;;25.30;23.60;;;-0.40;92.90;;;;;;5053914;28;20180;-84
2024/01/19 01:52:48;;;;;;;24.90;22.43;;;-0.60;92.90;;;;;;5053598;28;20170;-84
2024/01/19 01:55:15;;;;;;;23.73;22.13;;;-0.50;92.90;;;;;;5053532;28;20262;-84
2024/01/19 01:57:42;;;;;;;21.20;19.60;;;-0.40;92.90;;;;;;5052235;28;20206;-84
2024/01/19 02:00:09;;;;;;;18.10;16.60;;;-0.40;92.70;;;;;;5052249;28;20181;-84
2024/01/19 02:02:36;;;;;;;18.37;17.23;;;-0.40;92.70;;;;;;5052033;28;20265;-84
2024/01/19 02:05:02;;;;;;;19.87;18.50;;;-0.40;92.40;;;;;;5052053;28;20176;-84
2024/01/19 02:07:28;;;;;;;20.03;18.87;;;-0.30;92.20;;;;;;5053287;28;20198;-84
2024/01/19 02:09:53;;;;;;;18.50;17.40;;;-0.30;91.60;;;;;;5053272;28;20178;-84
2024/01/19 02:12:21;;;;;;;19.70;18.50;;;-0.20;91.30;;;;;;5052115;28;20219;-84
2024/01/19 02:14:47;;;;;;;20.67;19.03;;;-0.20;91.30;;;;;;5053568;28;20283;-84
2024/01/19 02:17:12;;;;;;;21.80;20.00;;;-0.10;91.20;;;;;;5053597;28;20201;-84
2024/01/19 02:19:39;;;;;;;22.30;20.97;;;-0.30;91.00;;;;;;5053178;28;20180;-84
2024/01/19 02:22:05;;;;;;;20.77;19.47;;;-0.30;91.30;;;;;;5053308;28;20228;-84
2024/01/19 02:24:33;;;;;;;19.83;18.53;;;-0.40;91.40;;;;;;5053301;28;20178;-84
2024/01/19 02:27:00;;;;;;;18.23;16.87;;;-0.40;91.70;;;;;;5051870;28;20218;-84
2024/01/19 02:29:25;;;;;;;19.60;17.73;;;-0.30;91.90;;;;;;5053716;28;20185;-84
2024/01/19 02:31:51;;;;;;;19.73;18.23;;;-0.40;92.00;;;;;;5053286;28;20257;-84
2024/01/19 02:34:17;;;;;;;7.50;7.00;;;-0.30;92.20;;;;;;5053379;28;20258;-84
2024/01/19 02:36:42;;;;;;;8.20;7.40;;;-0.40;92.40;;;;;;5053424;28;20192;-83
2024/01/19 02:39:08;;;;;;;7.57;6.97;;;-0.40;92.50;;;;;;5052237;28;20173;-83
2024/01/19 02:41:34;;;;;;;9.57;8.17;;;-0.40;92.50;;;;;;5052169;28;20186;-83
2024/01/19 02:43:59;;;;;;;7.83;7.33;;;-0.40;92.50;;;;;;5053959;28;20244;-83
2024/01/19 02:46:25;;;;;;;7.87;7.23;;;-0.40;92.60;;;;;;5057249;28;20272;-83
2024/01/19 02:48:50;;;;;;;7.20;6.60;;;-0.30;92.50;;;;;;5057554;28;20173;-84
2024/01/19 02:51:16;;;;;;;7.10;6.60;;;-0.30;92.50;;;;;;5055833;28;20551;-84
2024/01/19 02:53:41;;;;;;;7.63;7.07;;;-0.20;92.50;;;;;;5055724;28;20261;-84
2024/01/19 02:56:07;;;;;;;6.07;5.67;;;-0.10;92.40;;;;;;5056832;28;20175;-84
2024/01/19 02:58:32;;;;;;;7.73;7.23;;;-0.10;92.90;;;;;;5056948;28;20224;-83
2024/01/19 03:00:59;;;;;;;10.97;10.17;;;-0.20;94.30;;;;;;5057037;28;20173;-84
2024/01/19 03:03:25;;;;;;;15.83;14.67;;;-0.30;95.10;;;;;;5056762;28;20204;-84
2024/01/19 03:05:50;;;;;;;16.47;15.00;;;-0.30;95.40;;;;;;5056859;28;20177;-84
2024/01/19 03:08:16;;;;;;;15.70;14.63;;;-0.30;95.50;;;;;;5056664;28;20197;-83
2024/01/19 03:10:41;;;;;;;15.90;14.80;;;-0.30;95.40;;;;;;5056715;28;20176;-84
2024/01/19 03:13:07;;;;;;;15.80;14.40;;;-0.30;95.40;;;;;;5055463;28;20651;-84
2024/01/19 03:15:32;;;;;;;14.63;13.33;;;-0.30;95.30;;;;;;5056808;28;20269;-84
2024/01/19 03:17:58;;;;;;;14.53;13.63;;;-0.30;95.20;;;;;;5056357;28;20193;-83
2024/01/19 03:20:23;;;;;;;16.27;15.00;;;-0.30;95.20;;;;;;5056592;28;20181;-84
2024/01/19 03:22:49;;;;;;;14.90;13.90;;;-0.30;95.20;;;;;;5056251;28;20209;-83
2024/01/19 03:25:15;;;;;;;15.30;13.90;;;-0.30;95.20;;;;;;5055021;28;20605;-84
2024/01/19 03:27:40;;;;;;;14.90;13.80;;;-0.30;95.20;;;;;;5056308;28;20197;-84
2024/01/19 03:30:06;;;;;;;14.77;13.80;;;-0.20;95.00;;;;;;5056251;28;20174;-84
2024/01/19 03:32:31;;;;;;;16.10;14.90;;;-0.30;94.90;;;;;;5054737;28;20551;-84
2024/01/19 03:34:57;;;;;;;14.77;13.63;;;-0.30;94.80;;;;;;5055362;28;20185;-84
2024/01/19 03:37:23;;;;;;;16.43;15.23;;;-0.40;94.70;;;;;;5056513;28;20681;-84
2024/01/19 03:39:48;;;;;;;16.47;14.80;;;-0.40;94.50;;;;;;5056141;28;20181;-84
2024/01/19 03:42:14;;;;;;;14.93;14.03;;;-0.30;94.30;;;;;;5056007;28;20213;-84
2024/01/19 03:44:40;;;;;;;13.87;12.87;;;-0.30;94.20;;;;;;5055844;28;20266;-84
2024/01/19 03:47:06;;;;;;;17.97;14.70;;;-0.10;94.20;;;;;;5054580;28;20206;-84
2024/01/19 03:49:31;;;;;;;31.60;29.50;;;-0.10;94.10;;;;;;5054738;28;20175;-84
2024/01/19 03:51:57;;;;;;;;;;;0.00;94.20;;;;;;5056590;28;19959;-84
2024/01/19 03:54:22;;;;;;;;;;;-0.10;94.30;;;;;;5055004;28;20262;-83
2024/01/19 03:56:48;;;;;;;;;;;0.00;94.50;;;;;;5053961;28;19912;-84
2024/01/19 03:59:13;;;;;;;;;;;0.00;94.40;;;;;;5056393;28;19905;-83
2024/01/19 04:01:39;;;;;;;;;;;0.00;94.30;;;;;;5054697;28;19995;-84
2024/01/19 04:04:04;;;;;;;;;;;0.00;94.10;;;;;;5056117;28;19959;-83
2024/01/19 04:06:29;;;;;;;;;;;0.00;94.00;;;;;;5056213;28;19905;-84
2024/01/19 04:08:55;;;;;;;;;;;0.00;93.80;;;;;;5056228;28;19916;-84
2024/01/19 04:11:20;;;;;;;;;;;0.00;93.70;;;;;;5056034;28;19911;-84
2024/01/19 04:13:46;;;;;;;;;;;0.10;93.70;;;;;;5055951;28;20387;-84
2024/01/19 04:16:11;;;;;;;24.10;22.60;;;0.10;93.60;;;;;;5056119;28;19904;-84
2024/01/19 04:18:37;;;;;;;25.10;23.37;;;0.20;93.60;;;;;;5055686;28;20175;-84
2024/01/19 04:21:02;;;;;;;27.53;24.87;;;0.10;93.60;;;;;;5054511;28;20548;-84
2024/01/19 04:23:28;;;;;;;27.60;25.57;;;0.00;93.40;;;;;;5055377;28;20202;-84
2024/01/19 04:25:53;;;;;;;28.83;26.70;;;0.00;93.30;;;;;;5053923;28;20233;-84
2024/01/19 04:28:19;;;;;;;28.90;26.63;;;-0.10;93.10;;;;;;5054134;28;20707;-84
2024/01/19 04:30:44;;;;;;;27.27;25.53;;;-0.10;93.20;;;;;;5055457;28;20658;-84
2024/01/19 04:33:10;;;;;;;28.63;26.63;;;0.00;93.40;;;;;;5053889;28;20233;-85
2024/01/19 04:35:35;;;;;;;28.23;25.63;;;0.00;93.50;;;;;;5055079;28;20227;-84
2024/01/19 04:38:01;;;;;;;23.70;21.97;;;0.00;93.60;;;;;;5054943;28;20287;-84
2024/01/19 04:40:26;;;;;;;26.83;24.93;;;0.00;94.00;;;;;;5053846;28;20182;-84
2024/01/19 04:42:52;;;;;;;29.50;26.50;;;-0.10;93.90;;;;;;5053537;28;20204;-84
2024/01/19 04:45:17;;;;;;;27.17;25.27;;;0.00;93.70;;;;;;5055362;28;20577;-84
2024/01/19 04:47:43;;;;;;;26.57;24.73;;;0.00;93.30;;;;;;5054977;28;20190;-84
2024/01/19 04:50:09;;;;;;;29.37;27.37;;;0.00;93.00;;;;;;5053686;28;20176;-84
2024/01/19 04:52:34;;;;;;;25.73;24.00;;;-0.10;93.00;;;;;;5054843;28;20182;-84
2024/01/19 04:55:00;;;;;;;28.83;26.93;;;-0.20;93.00;;;;;;5055233;28;20634;-84
2024/01/19 04:57:25;;;;;;;29.17;27.17;;;-0.10;93.10;;;;;;5053750;28;20208;-84
2024/01/19 04:59:51;;;;;;;16.33;14.80;;;-0.10;93.00;;;;;;5053154;28;20189;-84
2024/01/19 05:02:16;;;;;;;13.70;12.70;;;0.00;92.90;;;;;;5054232;28;20248;-85
2024/01/19 05:04:42;;;;;;;13.33;12.53;;;0.00;92.90;;;;;;5054440;28;20226;-84
2024/01/19 05:07:07;;;;;;;14.10;13.10;;;0.00;92.90;;;;;;5053959;28;20610;-84
2024/01/19 05:09:33;;;;;;;13.87;12.53;;;0.00;93.10;;;;;;5053876;28;20714;-84
2024/01/19 05:11:58;;;;;;;11.67;10.70;;;0.00;93.10;;;;;;5052927;28;20177;-84
2024/01/19 05:14:24;;;;;;;15.43;14.53;;;0.00;93.40;;;;;;5053289;28;20207;-84
2024/01/19 05:16:49;;;;;;;17.63;16.33;;;0.00;93.90;;;;;;5054107;28;20205;-84
2024/01/19 05:19:15;;;;;;;7.20;6.70;;;-0.10;93.90;;;;;;5054446;28;20236;-84
2024/01/19 05:21:40;;;;;;;8.37;7.60;;;-0.10;93.80;;;;;;5054955;28;20180;-85
2024/01/19 05:24:06;;;;;;;16.43;15.47;;;-0.10;93.20;;;;;;5058866;28;20185;-84
2024/01/19 05:26:32;;;;;;;16.47;14.90;;;-0.10;92.70;;;;;;5058205;28;20210;-84
2024/01/19 05:28:57;;;;;;;9.70;7.73;;;0.00;92.20;;;;;;5057976;28;20172;-87
2024/01/19 05:31:23;;;;;;;16.70;15.67;;;-0.10;92.10;;;;;;5058220;28;20637;-86
2024/01/19 05:33:48;;;;;;;16.17;14.93;;;-0.10;92.50;;;;;;5056372;28;20278;-86
2024/01/19 05:36:14;;;;;;;15.83;14.37;;;-0.20;92.60;;;;;;5057815;28;20261;-86
2024/01/19 05:38:39;;;;;;;16.23;15.13;;;-0.20;92.90;;;;;;5057980;28;20178;-85
2024/01/19 05:41:05;;;;;;;15.87;14.77;;;-0.10;93.00;;;;;;5056773;28;20187;-85
2024/01/19 05:43:30;;;;;;;17.53;16.17;;;-0.10;93.20;;;;;;5058964;28;20202;-85
2024/01/19 05:45:56;;;;;;;14.07;12.97;;;0.00;93.30;;;;;;5057928;28;20182;-86
2024/01/19 05:48:22;;;;;;;14.60;13.73;;;0.00;93.40;;;;;;5057853;28;20191;-85
2024/01/19 05:50:49;;;;;;;15.13;14.20;;;0.10;93.20;;;;;;5058746;28;20251;-86
2024/01/19 05:53:14;;;;;;;16.90;15.50;;;0.00;93.10;;;;;;5055849;28;20187;-85
2024/01/19 05:55:40;;;;;;;15.27;14.27;;;0.10;92.90;;;;;;5055907;28;20614;-85
2024/01/19 05:58:05;;;;;;;16.77;15.53;;;0.00;92.80;;;;;;5056900;28;20196;-85
2024/01/19 06:00:31;;;;;;;11.13;9.90;;;0.00;92.60;;;;;;5057417;28;20173;-84
2024/01/19 06:02:56;;;;;;;15.83;9.47;;;0.00;92.50;;;;;;5057275;28;20199;-85
2024/01/19 06:05:22;;;;;;;10.50;9.50;;;-0.10;92.20;;;;;;5056355;28;20228;-85
2024/01/19 06:07:47;;;;;;;11.37;10.00;;;-0.10;92.30;;;;;;5056344;28;20251;-87
2024/01/19 06:10:13;;;;;;;8.83;8.03;;;0.00;92.30;;;;;;5056223;28;20171;-85
2024/01/19 06:12:38;;;;;;;10.10;9.30;;;0.00;92.20;;;;;;5056509;28;20578;-87
2024/01/19 06:15:04;;;;;;;9.07;8.47;;;0.00;92.20;;;;;;5057633;28;20188;-86
2024/01/19 06:17:30;;;;;;;10.20;9.20;;;0.00;92.10;;;;;;5058065;28;20198;-85
2024/01/19 06:19:55;;;;;;;10.80;9.70;;;0.00;92.00;;;;;;5059917;28;20267;-87
2024/01/19 06:22:21;;;;;;;20.53;8.93;;;0.00;92.00;;;;;;5063908;28;20207;-85
2024/01/19 06:24:51;;;;;;;10.23;9.27;;;0.00;91.90;;;;;;5063132;28;20174;-86
2024/01/19 06:27:20;;;;;;;12.00;10.80;;;0.00;92.00;;;;;;5063628;28;20207;-86
2024/01/19 06:29:46;;;;;;;11.70;10.80;;;-0.10;92.00;;;;;;5064165;28;20636;-86
2024/01/19 06:32:11;;;;;;;11.77;10.83;;;-0.10;92.10;;;;;;5062328;28;20205;-86
2024/01/19 06:34:40;;;;;;;11.53;10.37;;;-0.20;92.10;;;;;;5062230;28;20266;-86
2024/01/19 06:37:05;;;;;;;13.53;10.87;;;-0.10;92.30;;;;;;5064572;28;20213;-86
2024/01/19 06:39:31;;;;;;;12.87;11.83;;;-0.10;92.40;;;;;;5062863;28;20252;-86
2024/01/19 06:41:56;;;;;;;13.80;11.33;;;-0.20;92.40;;;;;;5063259;28;20210;-86
2024/01/19 06:44:22;;;;;;;10.90;9.87;;;-0.20;92.50;;;;;;5064175;28;20228;-86
2024/01/19 06:46:47;;;;;;;10.63;9.73;;;-0.20;92.50;;;;;;5064100;28;20192;-86
2024/01/19 06:49:13;;;;;;;21.03;10.10;;;-0.20;92.30;;;;;;5062970;28;20174;-86
2024/01/19 06:51:39;;;;;;;11.33;9.30;;;-0.30;92.40;;;;;;5062757;28;20182;-86
2024/01/19 06:54:05;;;;;;;8.53;7.93;;;-0.30;92.40;;;;;;5059833;28;20198;-89
2024/01/19 06:56:30;;;;;;;12.10;8.90;;;-0.30;92.30;;;;;;5057696;28;20194;-88
2024/01/19 06:58:56;;;;;;;9.60;8.87;;;-0.30;92.30;;;;;;5059425;28;20184;-89
2024/01/19 07:01:23;;;;;;;9.57;8.87;;;-0.30;92.30;;;;;;5058057;28;20170;-88
2024/01/19 07:03:48;;;;;;;10.17;9.23;;;-0.30;92.40;;;;;;5057081;28;20212;-87
2024/01/19 07:06:14;;;;;;;9.47;8.57;;;-0.20;92.40;;;;;;5055233;28;20180;-88
2024/01/19 07:08:39;;;;;;;9.77;9.03;;;-0.30;92.20;;;;;;5055296;28;20190;-88
2024/01/19 07:11:05;;;;;;;10.90;10.07;;;-0.30;92.30;;;;;;5055297;28;20636;-88
2024/01/19 07:13:30;;;;;;;17.17;9.67;;;-0.30;92.30;;;;;;5055117;28;20188;-88
2024/01/19 07:15:56;;;;;;;15.93;14.80;;;-0.30;92.40;;;;;;5056736;28;20269;-87
2024/01/19 07:18:22;;;;;;;17.70;15.87;;;-0.10;92.40;;;;;;5055033;28;20202;-88
2024/01/19 07:20:47;;;;;;;19.93;16.43;;;-0.10;92.50;;;;;;5056320;28;20195;-88
2024/01/19 07:23:13;;;;;;;14.80;13.70;;;-0.10;92.70;;;;;;5055005;28;20249;-89
2024/01/19 07:25:39;;;;;;;15.97;14.87;;;-0.20;92.90;;;;;;5054866;28;20201;-88
2024/01/19 07:28:05;;;;;;;16.03;14.83;;;-0.30;93.00;;;;;;5054791;28;20222;-88
2024/01/19 07:30:31;;;;;;;20.77;17.10;;;-0.30;93.10;;;;;;5054001;28;20670;-88
2024/01/19 07:32:57;;;;;;;18.93;17.17;;;-0.40;93.10;;;;;;5054405;28;20186;-88
2024/01/19 07:35:22;;;;;;;17.70;16.03;;;-0.30;93.10;;;;;;5054769;28;20178;-88
2024/01/19 07:37:48;;;;;;;19.20;16.10;;;-0.30;93.10;;;;;;5054579;28;20283;-87
2024/01/19 07:40:14;;;;;;;15.87;14.50;;;-0.20;93.10;;;;;;5055909;28;20195;-88
2024/01/19 07:42:39;;;;;;;17.17;15.83;;;-0.20;93.10;;;;;;5055864;28;20550;-88
2024/01/19 07:45:05;;;;;;;19.30;18.00;;;-0.20;93.00;;;;;;5054517;28;20193;-88
2024/01/19 07:47:32;;;;;;;23.93;22.13;;;-0.20;93.00;;;;;;5055994;28;20692;-88
2024/01/19 07:49:58;;;;;;;25.60;23.90;;;-0.20;92.90;;;;;;5054343;28;20172;-87
2024/01/19 07:52:23;;;;;;;26.97;24.77;;;-0.30;92.70;;;;;;5054373;28;20176;-88
2024/01/19 07:54:49;;;;;;;23.60;21.80;;;-0.30;92.60;;;;;;5055639;28;20193;-88
2024/01/19 07:57:14;;;;;;;22.30;20.67;;;-0.40;92.80;;;;;;5055380;28;20200;-89
2024/01/19 07:59:41;;;;;;;15.77;14.40;;;-0.40;93.00;;;;;;5054254;28;20184;-88
2024/01/19 08:02:07;;;;;;;9.87;8.90;;;-0.40;93.10;;;;;;5054118;28;20692;-89
2024/01/19 08:04:33;;;;;;;9.83;8.93;;;-0.40;93.10;;;;;;5054188;28;20186;-88
2024/01/19 08:06:59;;;;;;;19.90;8.53;;;-0.40;93.20;;;;;;5054082;28;20317;-88
2024/01/19 08:09:25;;;;;;;9.33;8.07;;;-0.50;93.00;;;;;;5053944;28;20178;-88
2024/01/19 08:11:50;;;;;;;11.43;8.70;;;-0.50;93.20;;;;;;5055221;28;20176;-89
2024/01/19 08:14:16;;;;;;;12.43;8.97;;;-0.50;93.20;;;;;;5055192;28;20164;-88
2024/01/19 08:16:44;;;;;;;7.93;7.23;;;-0.60;93.20;;;;;;5055115;28;20202;-89
2024/01/19 08:19:10;;;;;;;18.13;12.93;;;-0.40;93.40;;;;;;5053939;28;20164;-87
2024/01/19 08:21:42;;;;;;;15.57;13.00;;;-0.40;93.20;;;;;;5054716;28;20710;-88
2024/01/19 08:24:08;;;;;;;13.20;12.00;;;-0.40;93.00;;;;;;5054974;28;20198;-88
2024/01/19 08:26:33;;;;;;;15.53;14.23;;;-0.40;92.90;;;;;;5053533;28;20647;-88
2024/01/19 08:29:00;;;;;;;16.47;14.87;;;-0.40;92.80;;;;;;5053742;28;20260;-88
2024/01/19 08:31:27;;;;;;;15.90;14.57;;;-0.20;92.70;;;;;;5053537;28;20182;-88
2024/01/19 08:33:53;;;;;;;16.70;15.10;;;-0.10;92.20;;;;;;5053702;28;20188;-88
2024/01/19 08:36:23;;;;;;;16.60;15.30;;;-0.20;92.00;;;;;;5053467;28;20174;-88
2024/01/19 08:38:52;;;;;;;16.00;14.73;;;-0.10;92.00;;;;;;5054612;28;20165;-88
2024/01/19 08:41:18;;;;;;;17.53;15.83;;;-0.10;91.90;;;;;;5053490;28;20203;-88
2024/01/19 08:43:43;;;;;;;16.63;15.37;;;-0.10;91.80;;;;;;5053056;28;20235;-88
2024/01/19 08:46:09;;;;;;;19.17;16.07;;;-0.10;91.70;;;;;;5053896;28;20308;-88
2024/01/19 08:48:34;;;;;;;18.23;16.60;;;0.00;91.70;;;;;;5053375;28;20222;-88
2024/01/19 08:51:01;;;;;;;29.87;17.90;;;0.00;91.80;;;;;;5053582;28;20640;-89
2024/01/19 08:53:27;;;;;;;17.57;16.37;;;0.10;91.80;;;;;;5053176;28;20186;-88
2024/01/19 08:55:53;;;;;;;17.53;16.00;;;0.30;91.80;;;;;;5053172;28;20618;-89
2024/01/19 08:58:18;;;;;;;15.40;14.33;;;0.30;91.70;;;;;;5052972;28;20235;-88
2024/01/19 09:00:44;;;;;;;17.03;15.63;;;0.20;91.90;;;;;;5054100;28;20183;-88
2024/01/19 09:03:10;;;;;;;17.27;15.73;;;0.10;92.00;;;;;;5053272;28;20203;-89
2024/01/19 09:05:36;;;;;;;19.13;17.83;;;0.00;91.90;;;;;;5054201;28;20647;-88
2024/01/19 09:08:02;;;;;;;17.70;16.40;;;0.00;92.00;;;;;;5053244;28;20432;-88
2024/01/19 09:10:29;;;;;;;17.70;16.37;;;0.00;92.10;;;;;;5054186;28;20172;-88
2024/01/19 09:12:55;;;;;;;10.03;9.33;;;0.10;92.00;;;;;;5054288;28;20197;-88
2024/01/19 09:15:21;;;;;;;15.37;9.13;;;0.10;92.00;;;;;;5053298;28;20177;-88
2024/01/19 09:17:47;;;;;;;9.07;7.87;;;0.20;92.10;;;;;;5054381;28;20736;-88
2024/01/19 09:20:13;;;;;;;12.67;8.90;;;0.10;92.30;;;;;;5054079;28;20179;-88
2024/01/19 09:22:38;;;;;;;9.73;8.77;;;0.10;92.80;;;;;;5053126;28;20247;-88
2024/01/19 09:25:04;;;;;;;11.87;7.07;;;0.10;93.30;;;;;;5053817;28;20177;-88
2024/01/19 09:27:30;;;;;;;7.60;6.40;;;0.10;93.60;;;;;;5054305;28;20210;-88
2024/01/19 09:29:55;;;;;;;12.30;7.30;;;0.10;93.80;;;;;;5052799;28;20218;-88
2024/01/19 09:32:21;;;;;;;15.43;8.40;;;0.20;93.70;;;;;;5052866;28;20183;-89
2024/01/19 09:34:46;;;;;;;10.63;8.63;;;0.20;93.40;;;;;;5053812;28;20175;-89
2024/01/19 09:37:12;;;;;;;15.57;9.83;;;0.20;93.20;;;;;;5052534;28;20584;-88
2024/01/19 09:39:38;;;;;;;11.10;8.10;;;0.10;93.00;;;;;;5053200;28;20175;-87
2024/01/19 09:42:08;;;;;;;21.23;9.63;;;0.10;93.10;;;;;;5052648;28;20208;-86
2024/01/19 09:44:36;;;;;;;10.60;9.57;;;0.20;92.90;;;;;;5052736;28;20244;-87
2024/01/19 09:47:04;;;;;;;11.07;9.90;;;0.30;92.40;;;;;;5053639;28;20190;-86
2024/01/19 09:49:58;;;;;;;11.00;9.90;;;0.30;92.00;;;;;;5052452;28;20186;-87
2024/01/19 09:52:42;;;;;;;11.53;10.00;;;0.30;91.90;;;;;;5053772;28;20174;-87
2024/01/19 09:55:10;;;;;;;11.43;10.30;;;0.30;91.80;;;;;;5053222;28;20243;-88
2024/01/19 09:57:43;;;;;;;12.50;9.90;;;0.30;91.70;;;;;;5053307;28;20287;-88
2024/01/19 10:00:09;;;;;;;21.80;12.63;;;0.40;91.50;;;;;;5053126;28;20165;-88
2024/01/19 10:02:35;;;;;;;12.83;11.70;;;0.40;91.20;;;;;;5052281;28;20231;-88
2024/01/19 10:05:01;;;;;;;12.83;11.50;;;0.40;91.10;;;;;;5052095;28;20194;-87
2024/01/19 10:07:28;;;;;;;12.17;11.23;;;0.50;90.90;;;;;;5053511;28;20683;-88
2024/01/19 10:09:55;;;;;;;13.67;12.40;;;0.50;90.70;;;;;;5054181;28;20183;-88
2024/01/19 10:12:24;;;;;;;14.43;12.00;;;0.50;90.40;;;;;;5053317;28;20175;-88
2024/01/19 10:14:49;;;;;;;14.13;12.97;;;0.50;90.10;;;;;;5051872;28;20179;-89
2024/01/19 10:17:17;;;;;;;14.23;12.77;;;0.50;89.90;;;;;;5051787;28;20206;-88
2024/01/19 10:19:43;;;;;;;14.13;12.80;;;0.60;89.70;;;;;;5051894;28;20182;-87
2024/01/19 10:22:26;;;;;;;13.57;12.37;;;0.60;89.80;;;;;;5051940;28;20716;-88
2024/01/19 10:25:03;;;;;;;13.27;12.07;;;0.60;89.80;;;;;;5051918;28;20268;-89
2024/01/19 10:27:51;;;;;;;15.00;13.00;;;0.70;89.70;;;;;;5051779;28;20586;-88
2024/01/19 10:30:21;;;;;;;16.33;13.57;;;0.70;89.50;;;;;;5052254;28;20163;-88
2024/01/19 10:32:48;;;;;;;13.43;12.47;;;0.80;89.20;;;;;;5053372;28;20160;-88
2024/01/19 10:35:16;;;;;;;14.37;13.13;;;0.80;88.90;;;;;;5053017;28;20264;-89
2024/01/19 10:37:42;;;;;;;15.50;13.70;;;0.80;89.00;;;;;;5051507;28;20209;-89
2024/01/19 10:40:21;;;;;;;13.20;12.20;;;0.70;89.10;;;;;;5053094;28;20175;-88
2024/01/19 10:42:53;;;;;;;12.57;11.53;;;0.80;89.40;;;;;;5052981;28;20206;-88
2024/01/19 10:45:25;;;;;;;12.20;11.40;;;0.90;89.30;;;;;;5051655;28;20169;-88
2024/01/19 10:47:53;;;;;;;12.77;11.87;;;0.90;89.40;;;;;;5052040;28;20246;-87
2024/01/19 10:50:19;;;;;;;12.57;11.67;;;0.90;89.30;;;;;;5051962;28;20180;-88
2024/01/19 10:52:48;;;;;;;13.73;12.33;;;0.90;89.50;;;;;;5051987;28;20190;-88
2024/01/19 10:55:19;;;;;;;15.97;12.17;;;0.90;89.70;;;;;;5053165;28;20516;-88
2024/01/19 10:57:45;;;;;;;17.87;16.13;;;0.80;90.30;;;;;;5053254;28;20226;-88
2024/01/19 11:00:29;;;;;;;16.23;14.83;;;0.80;91.00;;;;;;5052239;28;20178;-87
2024/01/19 11:02:57;;;;;;;17.57;14.87;;;0.70;91.60;;;;;;5053264;28;20562;-87
2024/01/19 11:05:23;;;;;;;23.43;21.67;;;0.60;92.60;;;;;;5054710;28;20544;-87
2024/01/19 11:07:51;;;;;;;22.70;20.83;;;0.60;93.70;;;;;;5056884;28;20195;-87
2024/01/19 11:10:18;;;;;;;20.43;19.23;;;0.60;94.20;;;;;;5057807;28;20650;-88
2024/01/19 11:12:52;;;;;;;23.27;21.00;;;0.60;94.50;;;;;;5056298;28;20594;-88
2024/01/19 11:15:35;;;;;;;20.80;19.03;;;0.60;94.70;;;;;;5056177;28;20184;-87
2024/01/19 11:18:04;;;;;;;22.60;20.70;;;0.60;94.90;;;;;;5056259;28;20694;-87
2024/01/19 11:20:31;;;;;;;20.03;18.63;;;0.50;95.10;;;;;;5058022;28;20177;-87
2024/01/19 11:22:56;;;;;;;22.40;20.20;;;0.60;95.20;;;;;;5056530;28;20290;-88
2024/01/19 11:26:08;;;;;;;23.23;21.40;;;0.60;95.20;;;;;;5057139;28;20609;-88
2024/01/19 11:28:52;;;;;;;23.47;21.33;;;0.60;95.20;;;;;;5038098;28;20270;-88
2024/01/19 11:31:22;;;;;;;19.93;18.50;;;0.70;95.10;;;;;;5058224;28;20157;-88
2024/01/19 11:33:48;;;;;;;22.00;19.70;;;0.70;95.10;;;;;;5056751;28;20185;-87
2024/01/19 11:36:40;;;;;;;21.43;19.67;;;0.60;95.30;;;;;;5056673;28;20177;-88
2024/01/19 11:39:06;;;;;;;20.97;19.47;;;0.70;95.40;;;;;;5058786;28;20189;-87
2024/01/19 11:41:32;;;;;;;13.13;11.80;;;0.70;95.40;;;;;;5057462;28;20183;-88
2024/01/19 11:43:59;;;;;;;11.93;11.03;;;0.80;95.40;;;;;;5054542;28;20205;-90
2024/01/19 11:46:47;;;;;;;11.77;11.07;;;0.70;95.30;;;;;;5054872;28;20219;-88
2024/01/19 11:49:38;;;;;;;23.83;21.90;;;0.70;95.40;;;;;;5054797;28;20634;-88
2024/01/19 11:52:24;;;;;;;21.80;20.03;;;0.70;95.30;;;;;;5055036;28;20176;-88
2024/01/19 11:54:49;;;;;;;23.83;21.90;;;0.80;95.20;;;;;;5054661;28;20182;-87
2024/01/19 11:57:25;;;;;;;21.80;20.43;;;0.90;95.20;;;;;;5056799;28;20199;-92
2024/01/19 11:59:53;;;;;;;24.13;22.07;;;0.90;95.00;;;;;;5055135;28;20559;-87
2024/01/19 12:02:27;;;;;;;23.37;21.57;;;1.00;94.90;;;;;;5055587;28;20257;-91
2024/01/19 12:04:54;;;;;;;13.63;12.73;;;0.90;94.80;;;;;;5056040;28;20172;-87
2024/01/19 12:07:22;;;;;;;14.30;13.37;;;0.90;94.80;;;;;;5058553;28;20184;-88
2024/01/19 12:10:07;;;;;;;13.47;12.57;;;0.90;94.80;;;;;;5056555;28;20542;-86
2024/01/19 12:12:33;;;;;;;14.30;13.20;;;0.90;94.80;;;;;;5056970;28;20187;-89
2024/01/19 12:15:00;;;;;;;13.57;12.67;;;0.90;94.90;;;;;;5055093;28;20176;-89
2024/01/19 12:17:26;;;;;;;14.17;13.00;;;0.90;94.90;;;;;;5053816;28;20199;-88
2024/01/19 12:19:52;;;;;;;15.23;13.63;;;1.00;95.00;;;;;;5054439;28;20208;-89
2024/01/19 12:22:19;;;;;;;10.77;9.97;;;1.10;95.00;;;;;;5055804;28;20675;-88
2024/01/19 12:24:45;;;;;;;10.50;9.70;;;1.00;95.00;;;;;;5055497;28;20171;-88
2024/01/19 12:27:20;;;;;;;12.37;11.27;;;1.00;94.90;;;;;;5055908;28;20217;-88
2024/01/19 12:29:45;;;;;;;10.67;9.90;;;1.00;94.90;;;;;;5055873;28;20175;-88
2024/01/19 12:32:18;;;;;;;14.07;11.30;;;1.00;94.80;;;;;;5055230;28;20216;-89
2024/01/19 12:35:00;;;;;;;12.20;11.07;;;1.00;94.60;;;;;;5058062;28;20682;-91
2024/01/19 12:37:26;;;;;;;7.87;7.07;;;1.00;94.60;;;;;;5055410;28;20269;-88
2024/01/19 12:39:52;;;;;;;6.90;6.27;;;1.00;94.60;;;;;;5054719;28;20180;-88